NCAR-RAP Real-Time Weather Data

Output produced by METARs form (20 August 2017  04:13 UTC)
found at http://weather.rap.ucar.edu/surface/
 
Conditions at: KIND observed 20 August 2017  03:54 UTC
Temperature: 23.9°C (75°F)
Dewpoint: 17.2°C (63°F) [RH = 66%]
Pressure (altimeter): 30.00 inches Hg (1016.0 mb)
[Sea-level pressure: 1015.1 mb]
Winds: from the E (90 degrees) at 6 MPH (5 knots; 2.6 m/s)
Visibility: 10 or more miles (16+ km)
Ceiling: at least 12,000 feet AGL
Clouds: few clouds at 8000 feet AGL
Present Weather: no significant weather observed at this time
KIND 200354Z 09005KT 10SM FEW080 24/17 A3000 RMK AO2 SLP151 T02390172